Time;durP1;ratioP1;P1;durP2;ratioP2;P2;SDS_P1;SDS_P2;PMS_P1;PMS_P2;Temp;Humidity;BMP_temperature;BMP_pressure;BME280_temperature;BME280_humidity;BME280_pressure;Samples;Min_cycle;Max_cycle;Signal;HPM_P1;HPM_P2
2022/01/08 00:01:13;;;;;;;17.13;12.03;;;1.70;99.90;;;;;;5082005;28;20235;-59
2022/01/08 00:03:41;;;;;;;18.57;12.00;;;1.60;40.80;;;;;;5082672;28;20206;-60
2022/01/08 00:06:08;;;;;;;18.37;12.43;;;1.70;20.70;;;;;;5049963;28;20220;-59
2022/01/08 00:08:41;;;;;;;17.97;11.60;;;1.70;1.00;;;;;;5050823;28;20199;-59
2022/01/08 00:11:10;;;;;;;16.27;11.30;;;1.60;1.00;;;;;;5076941;28;20252;-59
2022/01/08 00:13:39;;;;;;;23.37;11.77;;;1.70;1.00;;;;;;5062976;28;20290;-59
2022/01/08 00:16:07;;;;;;;17.50;11.03;;;1.70;22.40;;;;;;5061386;28;20209;-59
2022/01/08 00:18:34;;;;;;;22.37;11.03;;;1.70;26.20;;;;;;5079154;28;20616;-59
2022/01/08 00:21:01;;;;;;;15.10;11.47;;;1.80;1.00;;;;;;5080382;28;20206;-59
2022/01/08 00:23:28;;;;;;;22.13;14.20;;;1.80;1.00;;;;;;5084713;28;20211;-59
2022/01/08 00:25:55;;;;;;;19.83;13.07;;;1.80;1.00;;;;;;5066959;28;20217;-59
2022/01/08 00:28:22;;;;;;;19.63;11.23;;;1.70;1.00;;;;;;5065933;28;20662;-59
2022/01/08 00:30:50;;;;;;;18.47;11.10;;;1.60;1.00;;;;;;5068539;28;20285;-59
2022/01/08 00:33:17;;;;;;;20.30;11.07;;;1.60;1.00;;;;;;5063072;28;20223;-59
2022/01/08 00:35:45;;;;;;;17.83;11.80;;;1.60;1.00;;;;;;5082881;28;20763;-59
2022/01/08 00:38:13;;;;;;;21.80;11.27;;;1.50;1.00;;;;;;5081018;28;20195;-57
2022/01/08 00:40:40;;;;;;;19.63;11.33;;;1.50;1.00;;;;;;5060496;28;20226;-57
2022/01/08 00:43:07;;;;;;;16.47;12.30;;;1.50;1.00;;;;;;5085014;28;20577;-58
2022/01/08 00:45:34;;;;;;;17.97;10.83;;;1.40;41.00;;;;;;5083949;28;20244;-58
2022/01/08 00:48:01;;;;;;;19.07;13.00;;;1.40;99.90;;;;;;5083196;28;20255;-58
2022/01/08 00:50:28;;;;;;;21.67;14.50;;;1.40;1.00;;;;;;5081601;28;20313;-60
2022/01/08 00:52:55;;;;;;;19.03;12.83;;;1.40;1.00;;;;;;5060912;28;20611;-60
2022/01/08 00:55:22;;;;;;;17.20;12.97;;;1.40;1.00;;;;;;5075913;28;20255;-58
2022/01/08 00:57:49;;;;;;;20.37;12.80;;;1.40;1.00;;;;;;5077631;28;20659;-58
2022/01/08 01:00:17;;;;;;;25.37;13.17;;;1.30;1.00;;;;;;5077590;28;20273;-59
2022/01/08 01:02:44;;;;;;;21.67;12.40;;;1.30;1.00;;;;;;5079076;28;20598;-59
2022/01/08 01:05:12;;;;;;;18.23;11.63;;;1.30;1.00;;;;;;5078781;28;20287;-59
2022/01/08 01:07:39;;;;;;;18.87;11.70;;;1.30;99.90;;;;;;5062583;28;20187;-59
2022/01/08 01:10:07;;;;;;;17.67;11.40;;;1.30;99.90;;;;;;5061960;28;20689;-59
2022/01/08 01:12:35;;;;;;;18.53;12.33;;;1.30;99.90;;;;;;5082135;28;20288;-60
2022/01/08 01:15:10;;;;;;;23.17;12.80;;;1.30;99.90;;;;;;5080185;28;20675;-59
2022/01/08 01:17:37;;;;;;;17.77;11.73;;;1.20;99.90;;;;;;5083426;28;20194;-59
2022/01/08 01:20:06;;;;;;;18.07;11.67;;;1.30;99.90;;;;;;5071216;28;20720;-59
2022/01/08 01:22:45;;;;;;;25.60;12.77;;;1.20;1.00;;;;;;5087902;28;20210;-60
2022/01/08 01:25:16;;;;;;;24.93;11.47;;;1.30;1.00;;;;;;5085421;28;20196;-60
2022/01/08 01:28:03;;;;;;;22.17;12.00;;;1.30;1.00;;;;;;5081108;28;20287;-59
2022/01/08 01:47:28;;;;;;;22.40;12.30;;;1.00;1.00;;;;;;5083492;28;20255;-60
2022/01/08 01:49:59;;;;;;;21.67;11.53;;;1.00;1.00;;;;;;5086678;28;20222;-59
2022/01/08 01:52:28;;;;;;;21.03;12.23;;;1.00;1.00;;;;;;5082852;28;20569;-60
2022/01/08 01:54:55;;;;;;;23.97;12.83;;;1.00;99.90;;;;;;5067911;28;20705;-60
2022/01/08 01:57:22;;;;;;;27.50;12.93;;;1.10;99.90;;;;;;5088186;28;20792;-59
2022/01/08 01:59:49;;;;;;;24.83;13.13;;;1.10;99.90;;;;;;5086576;28;20205;-59
2022/01/08 02:02:16;;;;;;;26.67;13.70;;;1.10;1.00;;;;;;5065937;28;20255;-60
2022/01/08 02:04:44;;;;;;;24.10;13.47;;;1.10;99.90;;;;;;5065356;28;20209;-59
2022/01/08 02:07:12;;;;;;;28.27;15.40;;;1.10;99.90;;;;;;5087335;28;20186;-59
2022/01/08 02:09:40;;;;;;;23.90;14.43;;;1.10;99.90;;;;;;5050632;28;20198;-60
2022/01/08 02:12:12;;;;;;;26.40;13.60;;;1.10;99.90;;;;;;5081959;28;20205;-59
2022/01/08 02:14:39;;;;;;;25.80;13.83;;;1.10;99.90;;;;;;5081573;28;20526;-59
2022/01/08 02:17:08;;;;;;;24.30;14.50;;;1.20;99.90;;;;;;5085971;28;20661;-59
2022/01/08 02:19:38;;;;;;;27.57;14.50;;;1.30;99.90;;;;;;5068992;28;20195;-59
2022/01/08 02:22:10;;;;;;;24.40;15.07;;;1.20;1.00;;;;;;5065507;28;20836;-59
2022/01/08 02:24:37;;;;;;;23.77;14.23;;;1.00;1.00;;;;;;5085632;28;20202;-60
2022/01/08 02:27:05;;;;;;;36.37;15.40;;;0.90;1.00;;;;;;5080617;28;20220;-59
2022/01/08 02:29:33;;;;;;;26.73;14.07;;;0.90;1.00;;;;;;5083088;28;20202;-60
2022/01/08 02:32:15;;;;;;;29.10;14.60;;;0.80;1.00;;;;;;5060794;28;20194;-59
2022/01/08 02:34:44;;;;;;;23.90;15.03;;;0.70;1.00;;;;;;5082582;28;20591;-59
2022/01/08 02:37:14;;;;;;;28.67;14.07;;;0.70;1.00;;;;;;5077068;28;20209;-60
2022/01/08 02:39:43;;;;;;;26.63;14.83;;;0.70;1.00;;;;;;5077917;28;20654;-59
2022/01/08 02:42:14;;;;;;;25.37;14.17;;;0.60;1.00;;;;;;5062285;28;20194;-59
2022/01/08 02:44:45;;;;;;;27.77;14.67;;;0.60;31.10;;;;;;5083659;28;20194;-59
2022/01/08 02:47:18;;;;;;;25.90;14.27;;;0.60;99.90;;;;;;5082990;28;20206;-59
2022/01/08 02:49:48;;;;;;;25.77;14.80;;;0.70;1.00;;;;;;5085062;28;20225;-59
2022/01/08 02:52:15;;;;;;;25.67;15.00;;;0.80;12.90;;;;;;5061628;28;20259;-59
2022/01/08 02:54:42;;;;;;;31.50;16.07;;;0.90;99.90;;;;;;5082399;28;20278;-60
2022/01/08 02:57:09;;;;;;;26.17;15.77;;;0.90;1.00;;;;;;5084855;28;20675;-60
2022/01/08 02:59:36;;;;;;;29.33;16.53;;;0.90;1.00;;;;;;5081974;28;20294;-59
2022/01/08 03:02:03;;;;;;;29.70;16.13;;;0.90;1.00;;;;;;5079741;28;20202;-59
2022/01/08 03:04:30;;;;;;;34.57;17.13;;;0.90;1.00;;;;;;5062847;28;20723;-59
2022/01/08 03:06:58;;;;;;;29.77;17.80;;;0.80;1.00;;;;;;5073711;28;22080;-59
2022/01/08 03:09:27;;;;;;;32.93;17.93;;;0.80;1.00;;;;;;5080383;28;20530;-59
2022/01/08 03:11:59;;;;;;;33.73;17.53;;;0.80;1.00;;;;;;5061909;28;20253;-59
2022/01/08 03:14:26;;;;;;;40.90;19.23;;;0.80;1.00;;;;;;5060914;28;20198;-59
2022/01/08 03:16:53;;;;;;;31.27;18.37;;;0.80;1.00;;;;;;5084794;28;20228;-59
2022/01/08 03:19:22;;;;;;;35.23;18.87;;;0.70;1.00;;;;;;5064075;28;20619;-59
2022/01/08 03:21:54;;;;;;;33.83;18.37;;;0.80;1.00;;;;;;5086010;28;20221;-59
2022/01/08 03:24:27;;;;;;;32.70;18.13;;;0.70;1.00;;;;;;5082195;28;20247;-59
2022/01/08 03:26:55;;;;;;;35.07;19.27;;;0.70;47.60;;;;;;5079420;28;20203;-59
2022/01/08 03:29:23;;;;;;;37.33;18.73;;;0.60;31.30;;;;;;5082813;28;20645;-59
2022/01/08 03:31:50;;;;;;;34.97;20.07;;;0.60;1.00;;;;;;5066004;28;20305;-60
2022/01/08 03:34:17;;;;;;;38.47;19.33;;;0.50;89.80;;;;;;5061919;28;20231;-59
2022/01/08 03:36:44;;;;;;;33.77;19.27;;;0.40;1.00;;;;;;5065475;28;20274;-60
2022/01/08 03:39:11;;;;;;;33.80;18.30;;;0.40;25.50;;;;;;5066718;28;22017;-59
2022/01/08 03:41:39;;;;;;;36.27;19.27;;;0.50;94.40;;;;;;5068876;28;20203;-58
2022/01/08 03:44:09;;;;;;;36.87;19.73;;;0.50;99.90;;;;;;5085880;28;20198;-59
2022/01/08 03:46:36;;;;;;;43.13;20.67;;;0.50;1.00;;;;;;5062410;28;20678;-60
2022/01/08 03:51:32;;;;;;;40.57;22.03;;;0.60;76.40;;;;;;5082676;28;20206;-59
2022/01/08 03:53:59;;;;;;;42.17;21.53;;;0.50;99.90;;;;;;5070336;28;20236;-59
2022/01/08 03:56:27;;;;;;;39.43;21.50;;;0.50;1.00;;;;;;5088166;28;20226;-59
2022/01/08 03:58:54;;;;;;;47.10;25.43;;;0.40;1.00;;;;;;5084764;28;20194;-60
2022/01/08 04:01:21;;;;;;;41.37;21.93;;;0.40;22.50;;;;;;5087995;28;20222;-59
2022/01/08 04:03:48;;;;;;;40.67;23.00;;;0.40;1.00;;;;;;5081106;28;20256;-60
2022/01/08 04:06:15;;;;;;;45.00;23.07;;;0.50;1.00;;;;;;5086236;28;20206;-60
2022/01/08 04:08:42;;;;;;;42.73;21.93;;;0.60;99.90;;;;;;5047171;28;20653;-59
2022/01/08 04:11:09;;;;;;;48.73;24.07;;;0.60;1.00;;;;;;5078511;28;20186;-60
2022/01/08 04:13:39;;;;;;;45.43;23.83;;;0.60;1.00;;;;;;5060101;28;20552;-59
2022/01/08 04:16:17;;;;;;;41.80;22.60;;;0.60;1.00;;;;;;5085683;28;20214;-59
2022/01/08 04:18:44;;;;;;;51.20;23.00;;;0.50;1.00;;;;;;5084986;28;20205;-60
2022/01/08 04:23:44;;;;;;;49.80;26.30;;;0.50;1.00;;;;;;5068509;28;20243;-60
2022/01/08 04:26:11;;;;;;;49.57;25.00;;;0.40;1.00;;;;;;5087981;28;20217;-60
2022/01/08 04:28:38;;;;;;;49.07;26.77;;;0.40;99.90;;;;;;5086035;28;20225;-60
2022/01/08 04:31:05;;;;;;;52.53;31.20;;;0.30;99.90;;;;;;5066716;28;20236;-59
2022/01/08 04:33:32;;;;;;;57.87;28.93;;;0.40;1.00;;;;;;5086903;28;20222;-60
2022/01/08 04:35:59;;;;;;;51.97;28.87;;;0.50;18.20;;;;;;5085876;28;20559;-60
2022/01/08 04:38:26;;;;;;;48.47;27.57;;;0.50;99.90;;;;;;5082127;28;20206;-61
2022/01/08 04:40:53;;;;;;;66.33;32.97;;;0.70;1.00;;;;;;5087509;28;20356;-60
2022/01/08 04:43:21;;;;;;;55.73;34.40;;;0.80;1.00;;;;;;5081797;28;20773;-60
2022/01/08 04:45:49;;;;;;;64.50;37.40;;;0.90;1.00;;;;;;5089045;28;20264;-60
2022/01/08 04:48:16;;;;;;;67.83;37.77;;;0.90;1.00;;;;;;5084383;28;20259;-60
2022/01/08 04:50:49;;;;;;;65.13;37.03;;;1.00;1.00;;;;;;5085246;28;20190;-60
2022/01/08 04:53:16;;;;;;;73.63;38.50;;;1.10;27.70;;;;;;5040875;28;20287;-60
2022/01/08 04:55:43;;;;;;;66.23;38.63;;;1.10;90.70;;;;;;5083747;28;20221;-60
2022/01/08 04:58:10;;;;;;;61.77;31.43;;;1.10;52.50;;;;;;5067363;28;20609;-60
2022/01/08 05:00:38;;;;;;;71.07;36.93;;;1.10;1.00;;;;;;5083881;28;20217;-60
2022/01/08 05:03:06;;;;;;;91.97;42.27;;;1.20;1.00;;;;;;5087780;28;20559;-59
2022/01/08 05:05:33;;;;;;;86.10;42.77;;;1.20;1.00;;;;;;5088072;28;20200;-60
2022/01/08 05:08:00;;;;;;;74.73;39.33;;;1.20;1.00;;;;;;5068115;28;20255;-60
2022/01/08 05:10:33;;;;;;;70.10;39.73;;;1.20;1.00;;;;;;5080126;28;20661;-59
2022/01/08 05:13:04;;;;;;;73.40;38.43;;;1.10;99.90;;;;;;5084387;28;20236;-59
2022/01/08 05:15:34;;;;;;;75.00;37.43;;;1.10;4.10;;;;;;5083362;28;20186;-60
2022/01/08 05:18:04;;;;;;;66.57;37.20;;;1.00;1.00;;;;;;5068959;28;20214;-60
2022/01/08 05:20:34;;;;;;;71.60;40.23;;;0.90;99.90;;;;;;5084086;28;20260;-59
2022/01/08 05:23:02;;;;;;;75.03;39.17;;;0.90;1.00;;;;;;5085079;28;20282;-59
2022/01/08 05:25:30;;;;;;;62.23;36.90;;;0.90;1.00;;;;;;5087509;28;20202;-59
2022/01/08 05:27:57;;;;;;;63.17;36.97;;;0.90;1.00;;;;;;5087336;28;20321;-61
2022/01/08 05:30:27;;;;;;;54.50;31.57;;;0.90;1.00;;;;;;5066594;28;20202;-60
2022/01/08 05:32:54;;;;;;;51.57;30.17;;;0.80;1.00;;;;;;5077122;28;20275;-59
2022/01/08 05:35:24;;;;;;;59.30;29.90;;;0.80;99.90;;;;;;5066855;28;20190;-59
2022/01/08 05:37:51;;;;;;;53.03;29.27;;;0.70;1.00;;;;;;5088251;28;20337;-60
2022/01/08 05:40:19;;;;;;;51.60;28.53;;;0.70;99.90;;;;;;5065757;28;20237;-60
2022/01/08 05:42:47;;;;;;;56.97;29.23;;;0.70;99.90;;;;;;5084884;28;20726;-60
2022/01/08 05:45:13;;;;;;;56.30;30.77;;;0.80;1.00;;;;;;5067146;28;20207;-60
2022/01/08 05:47:41;;;;;;;49.30;28.43;;;0.70;99.90;;;;;;5084944;28;20334;-60
2022/01/08 05:50:09;;;;;;;54.93;28.43;;;0.60;99.90;;;;;;5082045;28;20224;-60
2022/01/08 05:52:36;;;;;;;68.63;36.53;;;0.60;99.90;;;;;;5083110;28;20303;-59
2022/01/08 05:55:04;;;;;;;67.90;41.23;;;0.50;99.90;;;;;;5066294;28;20692;-60
2022/01/08 05:57:31;;;;;;;55.80;33.23;;;0.50;99.90;;;;;;5085337;28;20241;-61
2022/01/08 05:59:58;;;;;;;60.93;31.73;;;0.50;1.00;;;;;;5084008;28;20699;-59
2022/01/08 06:02:25;;;;;;;57.13;30.60;;;0.60;1.00;;;;;;5086245;28;20329;-59
2022/01/08 06:04:52;;;;;;;51.63;30.70;;;0.60;1.00;;;;;;5064879;28;20195;-59
2022/01/08 06:07:19;;;;;;;54.60;30.10;;;0.60;28.40;;;;;;5065808;28;20273;-60
2022/01/08 06:09:46;;;;;;;54.77;30.57;;;0.50;1.00;;;;;;5064481;28;20190;-59
2022/01/08 06:12:13;;;;;;;50.53;30.67;;;0.50;1.00;;;;;;5064626;28;20239;-59
2022/01/08 06:14:40;;;;;;;58.77;30.07;;;0.50;1.00;;;;;;5083387;28;20190;-60
2022/01/08 06:17:08;;;;;;;55.47;30.37;;;0.60;1.00;;;;;;5084055;28;20289;-60
2022/01/08 06:19:35;;;;;;;65.67;31.77;;;0.70;1.00;;;;;;5082271;28;20198;-60
2022/01/08 06:22:02;;;;;;;61.50;31.77;;;0.80;1.00;;;;;;5066779;28;20577;-60
2022/01/08 06:24:29;;;;;;;69.50;38.03;;;0.80;8.60;;;;;;5078894;28;20255;-60
2022/01/08 06:26:56;;;;;;;65.37;35.03;;;0.90;78.10;;;;;;5084721;28;20536;-60
2022/01/08 06:29:23;;;;;;;62.17;33.67;;;0.90;1.00;;;;;;5074561;28;20698;-60
2022/01/08 06:31:51;;;;;;;64.87;33.97;;;1.00;1.00;;;;;;5085408;28;20199;-60
2022/01/08 06:34:19;;;;;;;57.50;32.07;;;1.00;1.00;;;;;;5062231;28;20320;-59
2022/01/08 06:36:47;;;;;;;60.23;33.60;;;1.00;1.00;;;;;;5077129;28;20867;-60
2022/01/08 06:39:15;;;;;;;60.63;33.57;;;1.10;99.90;;;;;;5082664;28;20206;-60
2022/01/08 06:41:42;;;;;;;62.57;33.37;;;1.10;1.00;;;;;;5083160;28;20745;-60
2022/01/08 06:44:10;;;;;;;61.27;32.57;;;1.20;1.00;;;;;;5073993;28;20281;-59
2022/01/08 06:46:37;;;;;;;60.93;33.00;;;1.20;1.00;;;;;;5081698;28;20245;-59
2022/01/08 06:49:04;;;;;;;60.17;32.77;;;1.10;1.00;;;;;;5082488;28;20190;-59
2022/01/08 06:51:31;;;;;;;54.73;32.00;;;1.10;90.70;;;;;;5085489;28;22720;-60
2022/01/08 06:53:58;;;;;;;59.67;31.13;;;1.20;1.00;;;;;;5070804;28;20212;-59
2022/01/08 06:56:25;;;;;;;55.27;31.90;;;1.20;1.00;;;;;;5086774;28;20263;-59
2022/01/08 06:58:52;;;;;;;63.67;34.27;;;1.20;99.90;;;;;;5064626;28;20906;-59
2022/01/08 07:01:21;;;;;;;65.00;33.03;;;1.10;1.00;;;;;;5072054;28;20285;-59
2022/01/08 07:03:48;;;;;;;57.70;33.10;;;1.10;1.00;;;;;;5086506;28;20243;-59
2022/01/08 07:06:15;;;;;;;64.77;34.17;;;1.10;99.90;;;;;;5088138;28;20190;-59
2022/01/08 07:08:42;;;;;;;54.63;33.30;;;1.00;99.90;;;;;;5083411;28;20183;-59
2022/01/08 07:11:10;;;;;;;56.53;33.00;;;1.10;99.90;;;;;;5075698;28;20221;-59
2022/01/08 07:13:37;;;;;;;64.80;34.67;;;1.10;1.00;;;;;;5061384;28;20269;-59
2022/01/08 07:16:04;;;;;;;62.93;33.13;;;0.90;1.00;;;;;;5069098;28;22649;-59
2022/01/08 07:18:31;;;;;;;66.20;33.87;;;0.80;99.90;;;;;;5064568;28;20849;-59
2022/01/08 07:20:58;;;;;;;56.23;32.03;;;0.80;99.90;;;;;;5089467;28;20245;-59
2022/01/08 07:23:25;;;;;;;54.63;31.90;;;0.70;99.90;;;;;;5070215;28;20208;-59
2022/01/08 07:25:52;;;;;;;58.23;32.60;;;0.70;99.90;;;;;;5089296;28;20251;-59
2022/01/08 07:28:19;;;;;;;58.37;33.57;;;0.70;1.00;;;;;;5086488;28;20218;-59
2022/01/08 07:30:46;;;;;;;64.27;34.07;;;0.60;99.90;;;;;;5089092;28;20206;-59
2022/01/08 07:33:13;;;;;;;67.63;35.40;;;0.70;1.00;;;;;;5084368;28;20234;-59
2022/01/08 07:35:40;;;;;;;66.53;35.43;;;0.70;1.00;;;;;;5088029;28;20705;-59
2022/01/08 07:38:07;;;;;;;65.30;35.20;;;0.70;1.00;;;;;;5085196;28;20293;-59
2022/01/08 07:40:34;;;;;;;64.87;34.97;;;0.70;1.00;;;;;;5082275;28;20726;-59
2022/01/08 07:43:01;;;;;;;73.43;32.67;;;0.70;99.90;;;;;;5085099;28;20190;-59
2022/01/08 07:45:28;;;;;;;66.67;33.80;;;0.70;99.90;;;;;;5086593;28;20599;-58
2022/01/08 07:47:55;;;;;;;73.73;36.63;;;0.80;99.90;;;;;;5086710;28;20313;-60
2022/01/08 07:50:23;;;;;;;65.60;34.87;;;0.70;99.90;;;;;;5085389;28;20297;-59
2022/01/08 07:52:50;;;;;;;65.20;35.47;;;0.70;50.30;;;;;;5052641;28;20198;-59
2022/01/08 07:55:17;;;;;;;61.93;31.73;;;0.80;1.00;;;;;;5070761;28;20194;-59
2022/01/08 07:57:44;;;;;;;70.90;34.10;;;0.80;1.00;;;;;;5067757;28;20654;-59
2022/01/08 08:00:11;;;;;;;64.27;33.43;;;0.80;1.00;;;;;;5083932;28;20198;-59
2022/01/08 08:02:38;;;;;;;62.67;33.10;;;0.80;1.00;;;;;;5085017;28;20194;-59
2022/01/08 08:05:06;;;;;;;59.33;33.63;;;0.90;1.00;;;;;;5082780;28;20191;-59
2022/01/08 08:07:37;;;;;;;76.53;36.13;;;0.90;99.90;;;;;;5084584;28;20209;-59
2022/01/08 08:10:13;;;;;;;64.10;34.33;;;0.90;99.90;;;;;;5070788;28;20205;-59
2022/01/08 08:12:41;;;;;;;60.03;33.23;;;1.70;99.90;;;;;;5065757;28;20293;-59
2022/01/08 08:15:12;;;;;;;67.97;33.87;;;1.00;99.90;;;;;;5065979;28;20209;-59
2022/01/08 08:17:39;;;;;;;63.93;35.13;;;1.00;1.00;;;;;;5068735;28;20244;-59
2022/01/08 08:20:07;;;;;;;60.33;33.67;;;1.10;1.00;;;;;;5066187;28;20209;-59
2022/01/08 08:22:34;;;;;;;62.63;34.10;;;1.20;1.00;;;;;;5085666;28;20198;-59
2022/01/08 08:25:02;;;;;;;63.53;34.67;;;1.20;1.00;;;;;;5067498;28;20247;-59
2022/01/08 08:27:29;;;;;;;65.00;36.93;;;1.30;1.00;;;;;;5085480;28;20550;-59
2022/01/08 08:29:57;;;;;;;68.83;37.20;;;1.30;1.00;;;;;;5090392;28;20513;-59
2022/01/08 08:32:23;;;;;;;57.40;34.40;;;1.30;99.90;;;;;;5082956;28;20203;-59
2022/01/08 08:34:51;;;;;;;65.80;34.73;;;1.40;99.90;;;;;;5083372;28;20183;-59
2022/01/08 08:37:18;;;;;;;62.73;34.33;;;1.50;99.90;;;;;;5085954;28;20205;-59
2022/01/08 08:39:45;;;;;;;61.23;34.97;;;1.60;18.90;;;;;;5060667;28;20186;-60
2022/01/08 08:42:12;;;;;;;64.00;36.47;;;1.60;1.00;;;;;;5089807;28;20198;-60
2022/01/08 08:44:39;;;;;;;65.87;36.33;;;1.80;1.00;;;;;;5081111;28;20202;-59
2022/01/08 08:47:07;;;;;;;63.90;32.63;;;1.90;1.00;;;;;;5061400;28;23874;-59
2022/01/08 08:49:34;;;;;;;55.03;32.27;;;1.90;1.00;;;;;;5044407;28;20726;-59
2022/01/08 08:52:01;;;;;;;61.47;33.73;;;2.00;99.90;;;;;;5063371;28;20187;-59
2022/01/08 08:54:28;;;;;;;53.70;30.57;;;2.00;99.90;;;;;;5061982;28;20190;-59
2022/01/08 08:56:55;;;;;;;49.00;31.83;;;2.10;99.90;;;;;;5079000;28;20199;-61
2022/01/08 08:59:24;;;;;;;53.00;31.27;;;2.10;99.90;;;;;;5079594;28;20252;-60
2022/01/08 09:01:51;;;;;;;55.70;29.93;;;2.10;99.90;;;;;;5081923;28;20980;-59
2022/01/08 09:04:18;;;;;;;46.40;28.40;;;2.20;99.90;;;;;;5082294;28;20190;-58
2022/01/08 09:06:45;;;;;;;54.13;30.43;;;2.20;47.80;;;;;;5082998;28;20206;-58
2022/01/08 09:09:12;;;;;;;47.17;29.83;;;2.30;67.10;;;;;;5079521;28;20210;-59
2022/01/08 09:11:41;;;;;;;45.77;26.17;;;2.40;98.30;;;;;;5062341;28;20229;-59
2022/01/08 09:14:08;;;;;;;46.03;26.23;;;2.50;1.00;;;;;;5073057;28;20741;-59
2022/01/08 09:16:35;;;;;;;45.07;27.13;;;2.60;1.00;;;;;;5075131;28;20182;-59
2022/01/08 09:19:04;;;;;;;41.63;25.43;;;2.70;1.00;;;;;;5074324;28;20218;-58
2022/01/08 09:21:31;;;;;;;44.53;25.57;;;2.80;1.00;;;;;;5081061;28;20287;-59
2022/01/08 09:23:58;;;;;;;36.97;25.23;;;3.10;1.00;;;;;;5060577;28;20198;-58
2022/01/08 09:26:25;;;;;;;39.73;24.80;;;3.40;1.00;;;;;;5060572;28;20553;-59
2022/01/08 09:28:52;;;;;;;32.40;19.80;;;5.30;93.20;;;;;;5078121;28;20274;-59
2022/01/08 09:31:19;;;;;;;30.17;18.43;;;7.60;8.40;;;;;;5079883;28;20657;-59
2022/01/08 09:33:46;;;;;;;23.63;15.23;;;8.90;1.00;;;;;;5079585;28;20226;-57
2022/01/08 09:36:13;;;;;;;23.93;14.23;;;10.70;99.90;;;;;;5079592;28;20218;-58
2022/01/08 09:38:40;;;;;;;24.80;14.90;;;11.60;99.90;;;;;;5084501;28;20213;-57
2022/01/08 09:41:07;;;;;;;19.97;14.73;;;11.00;99.90;;;;;;5081961;28;20650;-56
2022/01/08 09:43:36;;;;;;;19.23;12.77;;;11.60;99.90;;;;;;5081575;28;20699;-58
2022/01/08 09:46:04;;;;;;;19.80;13.23;;;12.00;99.90;;;;;;5072965;28;20206;-57
2022/01/08 09:48:31;;;;;;;21.17;12.40;;;11.70;99.90;;;;;;5085054;28;20244;-58
2022/01/08 09:50:58;;;;;;;18.50;12.43;;;11.90;99.90;;;;;;5078272;28;20312;-57
2022/01/08 09:53:26;;;;;;;19.63;12.00;;;12.60;99.90;;;;;;5080141;28;20201;-59
2022/01/08 09:55:53;;;;;;;22.07;12.27;;;11.70;99.90;;;;;;5057701;28;20301;-58
2022/01/08 09:58:20;;;;;;;24.37;13.93;;;8.40;1.00;;;;;;5075846;28;20251;-57
2022/01/08 10:00:47;;;;;;;20.90;13.77;;;6.50;99.90;;;;;;5079952;28;20218;-58
2022/01/08 10:03:17;;;;;;;18.03;12.93;;;5.40;99.90;;;;;;5078633;28;20198;-57
2022/01/08 10:05:46;;;;;;;22.33;13.73;;;4.80;1.00;;;;;;5058309;28;20638;-59
2022/01/08 10:08:34;;;;;;;25.47;14.87;;;4.30;1.00;;;;;;5077761;28;20225;-59
2022/01/08 10:11:07;;;;;;;24.80;15.07;;;4.00;63.00;;;;;;5080427;28;20195;-59
2022/01/08 10:13:39;;;;;;;24.93;14.07;;;3.70;99.90;;;;;;5081681;28;20199;-59
2022/01/08 10:18:57;;;;;;;24.20;14.23;;;3.50;99.90;;;;;;5082136;28;20225;-59
2022/01/08 10:21:25;;;;;;;24.97;14.27;;;3.60;99.90;;;;;;5080029;28;20658;-59
2022/01/08 10:23:54;;;;;;;18.53;13.90;;;3.60;99.90;;;;;;5076600;28;20257;-59
2022/01/08 10:26:31;;;;;;;26.57;13.87;;;3.80;1.00;;;;;;5081545;28;20259;-58
2022/01/08 10:29:00;;;;;;;20.60;12.53;;;4.20;99.90;;;;;;5062375;28;20213;-59
2022/01/08 10:31:39;;;;;;;26.17;14.37;;;4.20;67.80;;;;;;5079473;28;20221;-59
2022/01/08 10:34:12;;;;;;;26.40;14.27;;;3.80;99.90;;;;;;5083669;28;20269;-59
2022/01/08 10:37:04;;;;;;;26.83;13.73;;;3.90;99.90;;;;;;5080723;28;21257;-59
2022/01/08 10:39:38;;;;;;;18.47;13.30;;;3.80;99.90;;;;;;5062393;28;20813;-58
2022/01/08 10:42:14;;;;;;;24.63;13.00;;;4.00;99.90;;;;;;5062739;28;20221;-59
2022/01/08 10:44:43;;;;;;;18.30;13.43;;;4.00;99.90;;;;;;5077215;28;20217;-60
2022/01/08 10:47:21;;;;;;;18.73;13.47;;;4.00;99.90;;;;;;5079047;28;20557;-59
2022/01/08 10:50:02;;;;;;;25.20;13.73;;;4.00;99.90;;;;;;5064019;28;20186;-59
2022/01/08 10:52:41;;;;;;;25.10;14.40;;;4.10;82.50;;;;;;5082403;28;20578;-59
2022/01/08 10:55:08;;;;;;;21.27;14.03;;;4.10;99.90;;;;;;5060644;28;20195;-59
2022/01/08 10:57:38;;;;;;;24.83;14.97;;;4.10;99.90;;;;;;5049182;28;20205;-59
2022/01/08 11:00:08;;;;;;;23.37;14.50;;;4.20;99.90;;;;;;5041867;28;20479;-59
2022/01/08 11:02:35;;;;;;;20.03;13.63;;;4.10;99.90;;;;;;5070822;28;20194;-59
2022/01/08 11:05:06;;;;;;;24.90;14.80;;;4.10;99.90;;;;;;5075445;28;20195;-59
2022/01/08 11:07:35;;;;;;;28.60;17.13;;;4.10;28.20;;;;;;5074594;28;20329;-59
2022/01/08 11:10:07;;;;;;;26.13;15.73;;;4.20;2.90;;;;;;5078304;28;20279;-59
2022/01/08 11:12:39;;;;;;;29.50;16.80;;;4.10;1.00;;;;;;5078767;28;20201;-59
2022/01/08 11:18:00;;;;;;;27.20;14.97;;;3.90;89.30;;;;;;5077399;28;20210;-59
2022/01/08 11:20:48;;;;;;;24.67;13.33;;;3.80;99.90;;;;;;5065044;28;20377;-59
2022/01/08 11:23:22;;;;;;;25.00;13.87;;;3.90;36.60;;;;;;5069579;28;20195;-60
2022/01/08 11:25:51;;;;;;;33.20;17.00;;;3.90;1.00;;;;;;5045207;28;20289;-59
2022/01/08 11:28:19;;;;;;;48.13;26.27;;;3.90;98.10;;;;;;5080130;28;20214;-60
2022/01/08 11:30:59;;;;;;;30.57;17.07;;;4.00;19.80;;;;;;5081200;28;20186;-59
2022/01/08 11:33:31;;;;;;;32.30;18.50;;;4.00;3.20;;;;;;5080794;28;20230;-59
2022/01/08 11:35:59;;;;;;;26.37;15.10;;;4.30;1.00;;;;;;5084087;28;20610;-59
2022/01/08 11:38:28;;;;;;;26.47;14.40;;;4.40;1.00;;;;;;5082336;28;20194;-59
2022/01/08 11:40:58;;;;;;;25.40;14.27;;;4.60;1.00;;;;;;5063975;28;20845;-59
2022/01/08 11:43:28;;;;;;;23.57;13.87;;;4.60;1.00;;;;;;5060354;28;20562;-59
2022/01/08 11:46:07;;;;;;;25.53;14.63;;;5.20;1.00;;;;;;5082562;28;20557;-59
2022/01/08 11:48:46;;;;;;;26.87;15.77;;;4.80;1.00;;;;;;5080863;28;20214;-59
2022/01/08 11:51:23;;;;;;;24.23;15.33;;;4.60;1.00;;;;;;5086106;28;20194;-60
2022/01/08 11:53:59;;;;;;;21.43;14.10;;;4.50;1.00;;;;;;5081040;28;20310;-60
2022/01/08 11:56:37;;;;;;;28.27;13.83;;;4.40;1.00;;;;;;5064481;28;21345;-59
2022/01/08 11:59:13;;;;;;;26.00;16.67;;;4.30;1.00;;;;;;5065181;28;20201;-59
2022/01/08 12:02:02;;;;;;;22.33;13.23;;;4.40;1.00;;;;;;5080246;28;20304;-59
2022/01/08 12:04:34;;;;;;;19.07;12.77;;;4.50;1.00;;;;;;5080890;28;20225;-59
2022/01/08 12:07:29;;;;;;;22.27;12.03;;;4.90;1.00;;;;;;5082757;28;20206;-59
2022/01/08 12:10:23;;;;;;;19.53;12.50;;;5.00;1.00;;;;;;5067752;28;20223;-59
2022/01/08 12:12:52;;;;;;;19.00;11.03;;;5.00;1.00;;;;;;5078314;28;20191;-59
2022/01/08 12:15:40;;;;;;;19.07;11.87;;;4.90;1.00;;;;;;5072871;28;20284;-60
2022/01/08 12:18:09;;;;;;;12.50;9.67;;;4.90;1.00;;;;;;5082849;28;20275;-59
2022/01/08 12:20:52;;;;;;;17.77;10.23;;;4.90;1.00;;;;;;5062882;28;20331;-59
2022/01/08 12:23:34;;;;;;;15.43;9.57;;;5.20;99.90;;;;;;5042676;28;20277;-59
2022/01/08 12:26:21;;;;;;;13.63;8.23;;;5.20;99.90;;;;;;5071889;28;21260;-59
2022/01/08 12:28:47;;;;;;;17.07;9.43;;;5.00;99.90;;;;;;5056084;28;20616;-59
2022/01/08 12:31:41;;;;;;;14.23;8.63;;;5.30;99.90;;;;;;5074398;28;20273;-59
2022/01/08 12:34:28;;;;;;;17.67;8.50;;;5.60;99.90;;;;;;5074434;28;20225;-59
2022/01/08 12:37:00;;;;;;;13.93;7.90;;;5.30;99.90;;;;;;5072333;28;20217;-59
2022/01/08 12:39:48;;;;;;;11.87;6.97;;;5.40;99.90;;;;;;5060021;28;20237;-58
2022/01/08 12:42:27;;;;;;;9.17;6.20;;;5.30;99.90;;;;;;5061518;28;20236;-59
2022/01/08 12:45:13;;;;;;;16.80;6.53;;;5.00;99.90;;;;;;5075106;28;20217;-60
2022/01/08 12:48:09;;;;;;;11.33;5.77;;;4.90;99.90;;;;;;5076977;28;20194;-59
2022/01/08 12:50:36;;;;;;;10.30;6.10;;;5.00;99.90;;;;;;5073481;28;20616;-59
2022/01/08 12:53:06;;;;;;;11.47;6.43;;;4.90;99.90;;;;;;5078254;28;21244;-58
2022/01/08 12:55:33;;;;;;;10.67;6.57;;;4.90;99.90;;;;;;5073609;28;20199;-59
2022/01/08 12:58:01;;;;;;;11.27;6.07;;;5.00;99.90;;;;;;5076130;28;20268;-59
2022/01/08 13:00:27;;;;;;;13.97;5.83;;;4.90;99.90;;;;;;5072958;28;20202;-59
2022/01/08 13:02:55;;;;;;;9.00;4.80;;;4.80;99.90;;;;;;5075860;28;20206;-58
2022/01/08 13:05:22;;;;;;;9.10;4.60;;;4.80;99.90;;;;;;5058956;28;23099;-58
2022/01/08 13:07:52;;;;;;;6.77;4.13;;;4.70;99.90;;;;;;5077854;28;20236;-58
2022/01/08 13:10:19;;;;;;;9.30;4.80;;;4.60;99.90;;;;;;5043803;28;20713;-59
2022/01/08 13:13:07;;;;;;;9.23;4.57;;;4.60;99.90;;;;;;5074835;28;20665;-59
2022/01/08 13:15:34;;;;;;;8.33;4.90;;;4.40;99.90;;;;;;5071386;28;20681;-58
2022/01/08 13:18:23;;;;;;;7.33;4.33;;;4.40;99.90;;;;;;5057585;28;20207;-59
2022/01/08 13:21:05;;;;;;;10.87;4.30;;;4.40;99.90;;;;;;5075052;28;20628;-65
2022/01/08 13:23:41;;;;;;;10.33;7.40;;;4.50;99.90;;;;;;5083439;28;20198;-59